Terminal Aerodrome Forecast
Issued by NWS

Home | Current Version | Previous Version | Text Only | Print | Product List | Glossary On
Versions: 1 2 3 4 5 6 7 8 9 10 11 12 13 14 15 16 17 18 19 20 21 22 23 24 25 26 27 28 29 30
000
FTUS44 KLZK 190300 AAC
TAFHRO
TAF AMD
KHRO 190306Z 1903/1924 12003KT 4SM BR BKN003 OVC012
     FM190900 12003KT 1SM BR OVC007
     FM191500 13005KT 5SM BR SCT007 BKN020
     FM191900 13006KT P6SM BKN025=

USA.gov is the U.S. government's official web portal to all federal, state and local government web resources and services.